sensor_id;sensor_type;location;lat;lon;timestamp;pressure;altitude;pressure_sealevel;temperature;humidity
77869;BME280;67231;59.144;37.934;2023-05-10T00:01:41;101109.22;;;10.85;47.77
77869;BME280;67231;59.144;37.934;2023-05-10T00:04:08;101111.03;;;10.85;47.05
77869;BME280;67231;59.144;37.934;2023-05-10T00:06:34;101100.53;;;10.83;47.12
77869;BME280;67231;59.144;37.934;2023-05-10T00:09:00;101104.53;;;10.78;47.90
77869;BME280;67231;59.144;37.934;2023-05-10T00:11:26;101105.03;;;10.71;48.60
77869;BME280;67231;59.144;37.934;2023-05-10T00:13:53;101105.28;;;10.68;48.56
77869;BME280;67231;59.144;37.934;2023-05-10T00:16:19;101103.59;;;10.67;48.79
77869;BME280;67231;59.144;37.934;2023-05-10T00:18:45;101113.13;;;10.70;49.28
77869;BME280;67231;59.144;37.934;2023-05-10T00:21:12;101105.41;;;10.67;50.58
77869;BME280;67231;59.144;37.934;2023-05-10T00:23:38;101110.28;;;10.62;50.60
77869;BME280;67231;59.144;37.934;2023-05-10T00:26:04;101112.47;;;10.56;51.70
77869;BME280;67231;59.144;37.934;2023-05-10T00:28:31;101107.16;;;10.56;51.80
77869;BME280;67231;59.144;37.934;2023-05-10T00:30:57;101109.81;;;10.56;52.09
77869;BME280;67231;59.144;37.934;2023-05-10T00:33:23;101103.06;;;10.52;52.91
77869;BME280;67231;59.144;37.934;2023-05-10T00:35:49;101115.72;;;10.49;52.88
77869;BME280;67231;59.144;37.934;2023-05-10T00:38:16;101109.59;;;10.48;53.14
77869;BME280;67231;59.144;37.934;2023-05-10T00:40:42;101108.97;;;10.45;53.97
77869;BME280;67231;59.144;37.934;2023-05-10T00:43:16;101110.91;;;10.43;53.40
77869;BME280;67231;59.144;37.934;2023-05-10T00:45:42;101110.34;;;10.39;53.08
77869;BME280;67231;59.144;37.934;2023-05-10T00:48:09;101113.09;;;10.37;53.07
77869;BME280;67231;59.144;37.934;2023-05-10T00:50:37;101114.81;;;10.38;53.95
77869;BME280;67231;59.144;37.934;2023-05-10T00:53:03;101112.00;;;10.40;54.79
77869;BME280;67231;59.144;37.934;2023-05-10T00:55:30;101110.47;;;10.37;55.08
77869;BME280;67231;59.144;37.934;2023-05-10T00:57:56;101107.22;;;10.34;55.66
77869;BME280;67231;59.144;37.934;2023-05-10T01:00:22;101107.44;;;10.31;55.89
77869;BME280;67231;59.144;37.934;2023-05-10T01:02:49;101111.88;;;10.30;55.19
77869;BME280;67231;59.144;37.934;2023-05-10T01:05:16;101107.44;;;10.31;55.11
77869;BME280;67231;59.144;37.934;2023-05-10T01:07:42;101107.34;;;10.32;54.65
77869;BME280;67231;59.144;37.934;2023-05-10T01:10:09;101118.66;;;10.34;54.94
77869;BME280;67231;59.144;37.934;2023-05-10T01:12:39;101111.88;;;10.30;54.57
77869;BME280;67231;59.144;37.934;2023-05-10T01:15:10;101109.34;;;10.29;54.49
77869;BME280;67231;59.144;37.934;2023-05-10T01:17:40;101108.50;;;10.28;54.26
77869;BME280;67231;59.144;37.934;2023-05-10T01:20:09;101104.91;;;10.29;54.34
77869;BME280;67231;59.144;37.934;2023-05-10T01:33:30;101117.47;;;10.38;55.14
77869;BME280;67231;59.144;37.934;2023-05-10T01:38:58;101117.06;;;10.43;55.07
77869;BME280;67231;59.144;37.934;2023-05-10T01:41:51;101111.75;;;10.43;55.38
77869;BME280;67231;59.144;37.934;2023-05-10T01:47:01;101113.44;;;10.44;54.82
77869;BME280;67231;59.144;37.934;2023-05-10T01:49:32;101112.25;;;10.48;54.36
77869;BME280;67231;59.144;37.934;2023-05-10T01:52:12;101109.59;;;10.48;54.87
77869;BME280;67231;59.144;37.934;2023-05-10T01:55:11;101110.44;;;10.49;53.51
77869;BME280;67231;59.144;37.934;2023-05-10T01:57:37;101108.34;;;10.52;53.45
77869;BME280;67231;59.144;37.934;2023-05-10T02:00:06;101102.94;;;10.54;54.18
77869;BME280;67231;59.144;37.934;2023-05-10T02:02:45;101103.06;;;10.52;55.06
77869;BME280;67231;59.144;37.934;2023-05-10T02:05:14;101109.06;;;10.54;54.92
77869;BME280;67231;59.144;37.934;2023-05-10T02:07:42;101102.09;;;10.53;54.93
77869;BME280;67231;59.144;37.934;2023-05-10T02:10:10;101106.16;;;10.57;54.72
77869;BME280;67231;59.144;37.934;2023-05-10T02:12:43;101113.50;;;10.65;52.62
77869;BME280;67231;59.144;37.934;2023-05-10T02:15:13;101104.09;;;10.72;52.16
77869;BME280;67231;59.144;37.934;2023-05-10T02:17:42;101108.16;;;10.77;53.20
77869;BME280;67231;59.144;37.934;2023-05-10T02:20:10;101096.72;;;10.76;53.22
77869;BME280;67231;59.144;37.934;2023-05-10T02:22:41;101089.94;;;10.72;53.67
77869;BME280;67231;59.144;37.934;2023-05-10T02:25:11;101099.63;;;10.73;53.93
77869;BME280;67231;59.144;37.934;2023-05-10T02:27:41;101101.31;;;10.74;53.89
77869;BME280;67231;59.144;37.934;2023-05-10T02:30:10;101110.44;;;10.81;53.35
77869;BME280;67231;59.144;37.934;2023-05-10T02:32:38;101097.63;;;10.86;53.99
77869;BME280;67231;59.144;37.934;2023-05-10T02:35:05;101101.84;;;10.89;53.66
77869;BME280;67231;59.144;37.934;2023-05-10T02:37:33;101101.72;;;10.90;53.89
77869;BME280;67231;59.144;37.934;2023-05-10T02:40:00;101103.25;;;10.93;53.67
77869;BME280;67231;59.144;37.934;2023-05-10T02:42:32;101108.31;;;10.96;54.24
77869;BME280;67231;59.144;37.934;2023-05-10T02:45:07;101104.00;;;10.95;53.67
77869;BME280;67231;59.144;37.934;2023-05-10T02:47:35;101103.63;;;11.00;53.16
77869;BME280;67231;59.144;37.934;2023-05-10T02:50:02;101101.28;;;11.06;51.37
77869;BME280;67231;59.144;37.934;2023-05-10T02:52:39;101095.19;;;11.16;49.27
77869;BME280;67231;59.144;37.934;2023-05-10T02:55:09;101097.91;;;11.25;47.90
77869;BME280;67231;59.144;37.934;2023-05-10T02:57:40;101096.16;;;11.36;47.90
77869;BME280;67231;59.144;37.934;2023-05-10T03:00:07;101093.81;;;11.42;46.63
77869;BME280;67231;59.144;37.934;2023-05-10T03:02:34;101093.28;;;11.48;45.81
77869;BME280;67231;59.144;37.934;2023-05-10T03:05:02;101094.47;;;11.56;45.36
77869;BME280;67231;59.144;37.934;2023-05-10T03:07:30;101088.31;;;11.65;44.65
77869;BME280;67231;59.144;37.934;2023-05-10T03:09:58;101093.69;;;11.75;43.77
77869;BME280;67231;59.144;37.934;2023-05-10T03:12:58;101086.88;;;11.82;44.24
77869;BME280;67231;59.144;37.934;2023-05-10T03:19:17;101090.72;;;11.99;43.59
77869;BME280;67231;59.144;37.934;2023-05-10T03:21:28;101094.28;;;12.09;42.66
77869;BME280;67231;59.144;37.934;2023-05-10T03:23:59;101097.53;;;12.23;42.68
77869;BME280;67231;59.144;37.934;2023-05-10T03:26:31;101087.75;;;12.33;42.42
77869;BME280;67231;59.144;37.934;2023-05-10T03:29:08;101097.41;;;12.44;42.74
77869;BME280;67231;59.144;37.934;2023-05-10T03:31:35;101109.66;;;12.56;41.72
77869;BME280;67231;59.144;37.934;2023-05-10T03:34:01;101109.50;;;12.67;41.84
77869;BME280;67231;59.144;37.934;2023-05-10T03:36:28;101104.31;;;12.75;41.69
77869;BME280;67231;59.144;37.934;2023-05-10T03:38:55;101114.28;;;12.83;40.82
77869;BME280;67231;59.144;37.934;2023-05-10T03:41:22;101112.19;;;12.87;41.17
77869;BME280;67231;59.144;37.934;2023-05-10T03:43:48;101097.88;;;12.88;41.36
77869;BME280;67231;59.144;37.934;2023-05-10T03:46:15;101110.66;;;12.94;40.94
77869;BME280;67231;59.144;37.934;2023-05-10T03:48:41;101107.44;;;13.00;40.72
77869;BME280;67231;59.144;37.934;2023-05-10T03:51:08;101107.69;;;13.07;41.32
77869;BME280;67231;59.144;37.934;2023-05-10T03:53:34;101105.31;;;13.14;41.23
77869;BME280;67231;59.144;37.934;2023-05-10T03:56:01;101117.34;;;13.18;41.42
77869;BME280;67231;59.144;37.934;2023-05-10T03:58:28;101111.72;;;13.21;40.57
77869;BME280;67231;59.144;37.934;2023-05-10T04:00:54;101109.94;;;13.21;41.53
77869;BME280;67231;59.144;37.934;2023-05-10T04:03:21;101115.81;;;13.25;40.96
77869;BME280;67231;59.144;37.934;2023-05-10T04:05:48;101116.22;;;13.30;40.08
77869;BME280;67231;59.144;37.934;2023-05-10T04:08:14;101118.34;;;13.36;39.87
77869;BME280;67231;59.144;37.934;2023-05-10T04:10:42;101118.47;;;13.44;39.79
77869;BME280;67231;59.144;37.934;2023-05-10T04:13:09;101116.91;;;13.52;39.29
77869;BME280;67231;59.144;37.934;2023-05-10T04:15:36;101118.41;;;13.64;39.71
77869;BME280;67231;59.144;37.934;2023-05-10T04:18:02;101123.41;;;13.77;39.18
77869;BME280;67231;59.144;37.934;2023-05-10T04:20:28;101123.50;;;13.95;39.10
77869;BME280;67231;59.144;37.934;2023-05-10T04:22:55;101113.44;;;14.16;39.06
77869;BME280;67231;59.144;37.934;2023-05-10T04:25:21;101122.28;;;14.35;38.56
77869;BME280;67231;59.144;37.934;2023-05-10T04:27:48;101121.91;;;14.57;37.60
77869;BME280;67231;59.144;37.934;2023-05-10T04:30:14;101121.25;;;14.73;36.89
77869;BME280;67231;59.144;37.934;2023-05-10T04:32:40;101125.72;;;14.91;37.00
77869;BME280;67231;59.144;37.934;2023-05-10T04:35:07;101124.06;;;15.08;37.42
77869;BME280;67231;59.144;37.934;2023-05-10T04:37:34;101124.47;;;15.21;36.82
77869;BME280;67231;59.144;37.934;2023-05-10T04:40:00;101125.31;;;15.40;36.28
77869;BME280;67231;59.144;37.934;2023-05-10T04:42:28;101119.50;;;15.44;36.58
77869;BME280;67231;59.144;37.934;2023-05-10T04:44:55;101121.00;;;15.47;36.31
77869;BME280;67231;59.144;37.934;2023-05-10T04:47:21;101128.75;;;15.58;36.48
77869;BME280;67231;59.144;37.934;2023-05-10T04:49:48;101124.69;;;15.46;36.72
77869;BME280;67231;59.144;37.934;2023-05-10T04:52:14;101126.72;;;15.52;35.87
77869;BME280;67231;59.144;37.934;2023-05-10T04:54:42;101125.41;;;15.56;36.77
77869;BME280;67231;59.144;37.934;2023-05-10T04:57:11;101134.38;;;15.47;37.05
77869;BME280;67231;59.144;37.934;2023-05-10T04:59:37;101136.38;;;15.45;36.15
77869;BME280;67231;59.144;37.934;2023-05-10T05:02:05;101124.69;;;15.46;35.89
77869;BME280;67231;59.144;37.934;2023-05-10T05:04:31;101133.75;;;15.53;35.71
77869;BME280;67231;59.144;37.934;2023-05-10T05:06:58;101124.78;;;15.62;35.11
77869;BME280;67231;59.144;37.934;2023-05-10T05:09:24;101117.22;;;15.84;34.30
77869;BME280;67231;59.144;37.934;2023-05-10T05:11:50;101122.63;;;15.92;33.74
77869;BME280;67231;59.144;37.934;2023-05-10T05:14:17;101118.31;;;15.99;34.32
77869;BME280;67231;59.144;37.934;2023-05-10T05:16:43;101127.75;;;16.12;34.00
77869;BME280;67231;59.144;37.934;2023-05-10T05:19:10;101123.38;;;16.11;34.47
77869;BME280;67231;59.144;37.934;2023-05-10T05:21:36;101128.06;;;16.09;34.11
77869;BME280;67231;59.144;37.934;2023-05-10T05:24:03;101119.53;;;16.05;34.13
77869;BME280;67231;59.144;37.934;2023-05-10T05:26:29;101121.06;;;16.24;34.67
77869;BME280;67231;59.144;37.934;2023-05-10T05:28:55;101121.50;;;16.46;34.00
77869;BME280;67231;59.144;37.934;2023-05-10T05:31:22;101127.03;;;16.52;33.62
77869;BME280;67231;59.144;37.934;2023-05-10T05:33:48;101116.66;;;16.66;34.88
77869;BME280;67231;59.144;37.934;2023-05-10T05:36:14;101118.50;;;16.73;34.79
77869;BME280;67231;59.144;37.934;2023-05-10T05:38:40;101120.19;;;16.74;34.41
77869;BME280;67231;59.144;37.934;2023-05-10T05:41:07;101118.88;;;16.87;34.22
77869;BME280;67231;59.144;37.934;2023-05-10T05:43:33;101112.19;;;16.99;34.00
77869;BME280;67231;59.144;37.934;2023-05-10T05:45:59;101115.19;;;17.13;33.93
77869;BME280;67231;59.144;37.934;2023-05-10T05:48:26;101111.03;;;17.18;33.55
77869;BME280;67231;59.144;37.934;2023-05-10T05:50:55;101115.19;;;17.37;33.16
77869;BME280;67231;59.144;37.934;2023-05-10T05:53:25;101108.91;;;17.70;32.91
77869;BME280;67231;59.144;37.934;2023-05-10T05:55:55;101112.72;;;18.00;32.24
77869;BME280;67231;59.144;37.934;2023-05-10T05:58:22;101107.03;;;18.26;32.92
77869;BME280;67231;59.144;37.934;2023-05-10T06:00:49;101107.28;;;18.71;32.16
77869;BME280;67231;59.144;37.934;2023-05-10T06:03:16;101108.44;;;19.38;31.96
77869;BME280;67231;59.144;37.934;2023-05-10T06:05:42;101106.53;;;19.76;31.54
77869;BME280;67231;59.144;37.934;2023-05-10T06:08:08;101105.59;;;19.99;30.96
77869;BME280;67231;59.144;37.934;2023-05-10T06:10:34;101112.84;;;20.93;30.55
77869;BME280;67231;59.144;37.934;2023-05-10T06:13:01;101109.03;;;22.00;29.43
77869;BME280;67231;59.144;37.934;2023-05-10T06:15:30;101103.06;;;22.73;27.98
77869;BME280;67231;59.144;37.934;2023-05-10T06:17:56;101109.34;;;23.07;28.83
77869;BME280;67231;59.144;37.934;2023-05-10T06:20:22;101119.78;;;23.37;27.78
77869;BME280;67231;59.144;37.934;2023-05-10T06:22:48;101111.84;;;23.16;27.84
77869;BME280;67231;59.144;37.934;2023-05-10T06:25:15;101107.88;;;22.91;28.45
77869;BME280;67231;59.144;37.934;2023-05-10T06:27:44;101110.72;;;23.90;27.65
77869;BME280;67231;59.144;37.934;2023-05-10T06:30:11;101103.78;;;24.01;27.59
77869;BME280;67231;59.144;37.934;2023-05-10T06:32:39;101114.09;;;24.31;27.31
77869;BME280;67231;59.144;37.934;2023-05-10T06:35:06;101105.09;;;25.01;27.11
77869;BME280;67231;59.144;37.934;2023-05-10T06:37:32;101119.94;;;25.49;25.83
77869;BME280;67231;59.144;37.934;2023-05-10T06:39:58;101111.53;;;25.06;26.46
77869;BME280;67231;59.144;37.934;2023-05-10T06:42:25;101121.91;;;25.41;26.50
77869;BME280;67231;59.144;37.934;2023-05-10T06:44:51;101121.94;;;25.97;25.53
77869;BME280;67231;59.144;37.934;2023-05-10T06:47:17;101117.13;;;26.78;24.41
77869;BME280;67231;59.144;37.934;2023-05-10T06:49:44;101125.13;;;27.51;24.07
77869;BME280;67231;59.144;37.934;2023-05-10T06:52:10;101123.34;;;27.68;23.17
77869;BME280;67231;59.144;37.934;2023-05-10T06:54:37;101116.06;;;26.91;24.14
77869;BME280;67231;59.144;37.934;2023-05-10T06:57:03;101121.38;;;26.44;24.01
77869;BME280;67231;59.144;37.934;2023-05-10T06:59:29;101115.38;;;26.53;22.93
77869;BME280;67231;59.144;37.934;2023-05-10T07:01:56;101115.84;;;26.93;22.75
77869;BME280;67231;59.144;37.934;2023-05-10T07:04:22;101114.09;;;27.57;22.36
77869;BME280;67231;59.144;37.934;2023-05-10T07:06:48;101125.63;;;28.12;21.37
77869;BME280;67231;59.144;37.934;2023-05-10T07:09:15;101124.19;;;28.50;20.84
77869;BME280;67231;59.144;37.934;2023-05-10T07:11:41;101122.16;;;28.57;20.37
77869;BME280;67231;59.144;37.934;2023-05-10T07:14:08;101115.72;;;28.63;20.54
77869;BME280;67231;59.144;37.934;2023-05-10T07:16:34;101117.72;;;28.68;20.77
77869;BME280;67231;59.144;37.934;2023-05-10T07:19:00;101117.06;;;29.12;19.89
77869;BME280;67231;59.144;37.934;2023-05-10T07:21:28;101124.63;;;29.04;19.91
77869;BME280;67231;59.144;37.934;2023-05-10T07:23:54;101125.25;;;29.12;18.46
77869;BME280;67231;59.144;37.934;2023-05-10T07:26:20;101118.34;;;29.04;18.93
77869;BME280;67231;59.144;37.934;2023-05-10T07:28:47;101120.75;;;29.34;18.22
77869;BME280;67231;59.144;37.934;2023-05-10T07:31:13;101120.84;;;30.28;17.04
77869;BME280;67231;59.144;37.934;2023-05-10T07:33:39;101117.72;;;30.96;16.53
77869;BME280;67231;59.144;37.934;2023-05-10T07:36:06;101120.88;;;31.15;16.50
77869;BME280;67231;59.144;37.934;2023-05-10T07:38:32;101118.94;;;30.83;17.13
77869;BME280;67231;59.144;37.934;2023-05-10T07:40:58;101123.56;;;30.77;16.19
77869;BME280;67231;59.144;37.934;2023-05-10T07:43:24;101118.16;;;31.20;15.39
77869;BME280;67231;59.144;37.934;2023-05-10T07:46:00;101121.16;;;31.18;15.95
77869;BME280;67231;59.144;37.934;2023-05-10T07:48:27;101115.09;;;31.11;15.42
77869;BME280;67231;59.144;37.934;2023-05-10T07:50:54;101116.47;;;30.81;14.99
77869;BME280;67231;59.144;37.934;2023-05-10T07:53:20;101114.25;;;30.78;16.83
77869;BME280;67231;59.144;37.934;2023-05-10T07:55:50;101115.41;;;30.87;17.12
77869;BME280;67231;59.144;37.934;2023-05-10T07:58:17;101120.91;;;30.87;17.51
77869;BME280;67231;59.144;37.934;2023-05-10T08:00:43;101112.91;;;30.04;17.14
77869;BME280;67231;59.144;37.934;2023-05-10T08:03:10;101108.97;;;29.95;17.73
77869;BME280;67231;59.144;37.934;2023-05-10T08:05:36;101107.78;;;30.35;17.87
77869;BME280;67231;59.144;37.934;2023-05-10T08:08:02;101113.25;;;29.86;18.28
77869;BME280;67231;59.144;37.934;2023-05-10T08:10:29;101106.91;;;29.63;18.41
77869;BME280;67231;59.144;37.934;2023-05-10T08:12:55;101115.00;;;29.75;16.98
77869;BME280;67231;59.144;37.934;2023-05-10T08:15:21;101111.53;;;29.63;16.27
77869;BME280;67231;59.144;37.934;2023-05-10T08:17:47;101101.72;;;29.84;16.05
77869;BME280;67231;59.144;37.934;2023-05-10T08:20:14;101102.84;;;29.27;17.40
77869;BME280;67231;59.144;37.934;2023-05-10T08:22:42;101104.09;;;29.58;17.76
77869;BME280;67231;59.144;37.934;2023-05-10T08:25:08;101108.72;;;29.74;17.48
77869;BME280;67231;59.144;37.934;2023-05-10T08:27:35;101096.31;;;29.89;17.75
77869;BME280;67231;59.144;37.934;2023-05-10T08:30:01;101090.78;;;29.45;17.29
77869;BME280;67231;59.144;37.934;2023-05-10T08:32:32;101082.06;;;28.17;18.18
77869;BME280;67231;59.144;37.934;2023-05-10T08:34:58;101082.06;;;26.70;19.79
77869;BME280;67231;59.144;37.934;2023-05-10T08:37:25;101083.56;;;25.50;19.58
77869;BME280;67231;59.144;37.934;2023-05-10T08:39:51;101076.81;;;24.58;20.31
77869;BME280;67231;59.144;37.934;2023-05-10T08:42:22;101074.78;;;24.08;19.38
77869;BME280;67231;59.144;37.934;2023-05-10T08:44:52;101062.03;;;23.50;20.45
77869;BME280;67231;59.144;37.934;2023-05-10T08:47:20;101057.28;;;23.12;21.93
77869;BME280;67231;59.144;37.934;2023-05-10T08:49:47;101066.00;;;22.74;21.53
77869;BME280;67231;59.144;37.934;2023-05-10T08:52:15;101057.63;;;22.42;21.28
77869;BME280;67231;59.144;37.934;2023-05-10T08:54:42;101057.22;;;22.39;21.00
77869;BME280;67231;59.144;37.934;2023-05-10T08:57:10;101048.50;;;22.43;22.94
77869;BME280;67231;59.144;37.934;2023-05-10T08:59:36;101044.66;;;22.11;23.66
77869;BME280;67231;59.144;37.934;2023-05-10T09:02:05;101037.72;;;21.95;23.33
77869;BME280;67231;59.144;37.934;2023-05-10T09:04:32;101037.81;;;22.22;24.33
77869;BME280;67231;59.144;37.934;2023-05-10T09:06:58;101036.75;;;22.23;22.71
77869;BME280;67231;59.144;37.934;2023-05-10T09:09:25;101027.22;;;22.20;22.55
77869;BME280;67231;59.144;37.934;2023-05-10T09:11:53;101030.81;;;21.86;24.49
77869;BME280;67231;59.144;37.934;2023-05-10T09:14:20;101037.53;;;21.96;24.30
77869;BME280;67231;59.144;37.934;2023-05-10T09:16:46;101031.63;;;21.79;23.75
77869;BME280;67231;59.144;37.934;2023-05-10T09:19:13;101027.00;;;21.67;23.99
77869;BME280;67231;59.144;37.934;2023-05-10T09:21:40;101024.88;;;21.55;25.66
77869;BME280;67231;59.144;37.934;2023-05-10T09:24:09;101021.97;;;21.57;25.86
77869;BME280;67231;59.144;37.934;2023-05-10T09:26:39;101019.16;;;21.37;25.95
77869;BME280;67231;59.144;37.934;2023-05-10T09:29:11;101017.28;;;21.37;25.14
77869;BME280;67231;59.144;37.934;2023-05-10T09:31:51;101010.06;;;21.44;24.81
77869;BME280;67231;59.144;37.934;2023-05-10T09:34:28;101013.66;;;21.23;25.45
77869;BME280;67231;59.144;37.934;2023-05-10T09:36:57;101002.56;;;21.12;24.79
77869;BME280;67231;59.144;37.934;2023-05-10T09:39:32;101013.53;;;21.03;25.10
77869;BME280;67231;59.144;37.934;2023-05-10T09:42:06;101007.50;;;21.01;26.75
77869;BME280;67231;59.144;37.934;2023-05-10T09:44:33;101005.66;;;21.08;26.10
77869;BME280;67231;59.144;37.934;2023-05-10T09:47:01;101001.44;;;21.27;25.29
77869;BME280;67231;59.144;37.934;2023-05-10T09:49:28;101000.34;;;21.50;26.46
77869;BME280;67231;59.144;37.934;2023-05-10T09:52:05;101004.50;;;21.53;25.93
77869;BME280;67231;59.144;37.934;2023-05-10T09:54:32;101001.47;;;21.34;25.30
77869;BME280;67231;59.144;37.934;2023-05-10T09:57:00;100988.97;;;21.26;25.88
77869;BME280;67231;59.144;37.934;2023-05-10T09:59:27;100987.66;;;21.16;26.28
77869;BME280;67231;59.144;37.934;2023-05-10T10:01:59;100988.06;;;21.13;26.45
77869;BME280;67231;59.144;37.934;2023-05-10T10:04:26;100980.16;;;21.11;26.25
77869;BME280;67231;59.144;37.934;2023-05-10T10:07:11;100985.59;;;21.18;26.54
77869;BME280;67231;59.144;37.934;2023-05-10T10:09:38;100980.84;;;21.26;26.62
77869;BME280;67231;59.144;37.934;2023-05-10T10:12:05;100987.50;;;21.24;26.84
77869;BME280;67231;59.144;37.934;2023-05-10T10:14:31;100975.59;;;21.12;26.30
77869;BME280;67231;59.144;37.934;2023-05-10T10:17:00;100979.44;;;20.96;25.75
77869;BME280;67231;59.144;37.934;2023-05-10T10:19:28;100970.16;;;21.05;26.29
77869;BME280;67231;59.144;37.934;2023-05-10T10:21:56;100969.78;;;21.15;26.82
77869;BME280;67231;59.144;37.934;2023-05-10T10:24:23;100964.38;;;20.80;26.50
77869;BME280;67231;59.144;37.934;2023-05-10T10:26:52;100965.91;;;20.89;26.59
77869;BME280;67231;59.144;37.934;2023-05-10T10:29:47;100963.94;;;21.04;26.78
77869;BME280;67231;59.144;37.934;2023-05-10T10:32:30;100957.22;;;21.28;26.46
77869;BME280;67231;59.144;37.934;2023-05-10T10:34:59;100965.53;;;21.34;25.78
77869;BME280;67231;59.144;37.934;2023-05-10T10:37:43;100971.31;;;21.24;25.83
77869;BME280;67231;59.144;37.934;2023-05-10T10:42:56;100973.34;;;21.22;25.45
77869;BME280;67231;59.144;37.934;2023-05-10T10:45:24;100958.25;;;21.27;25.71
77869;BME280;67231;59.144;37.934;2023-05-10T10:48:20;100965.03;;;21.17;26.10
77869;BME280;67231;59.144;37.934;2023-05-10T10:50:46;100964.88;;;20.90;26.31
77869;BME280;67231;59.144;37.934;2023-05-10T10:53:12;100959.25;;;20.63;26.35
77869;BME280;67231;59.144;37.934;2023-05-10T10:55:48;100956.88;;;20.53;26.83
77869;BME280;67231;59.144;37.934;2023-05-10T10:58:30;100948.34;;;20.71;26.72
77869;BME280;67231;59.144;37.934;2023-05-10T11:01:17;100947.16;;;20.81;26.53
77869;BME280;67231;59.144;37.934;2023-05-10T11:06:32;100949.34;;;20.99;26.10
77869;BME280;67231;59.144;37.934;2023-05-10T11:09:05;100955.06;;;20.82;26.55
77869;BME280;67231;59.144;37.934;2023-05-10T11:11:34;100954.50;;;20.65;26.27
77869;BME280;67231;59.144;37.934;2023-05-10T11:14:04;100942.38;;;20.76;26.34
77869;BME280;67231;59.144;37.934;2023-05-10T11:16:44;100952.19;;;20.84;26.46
77869;BME280;67231;59.144;37.934;2023-05-10T11:19:12;100948.78;;;20.75;26.82
77869;BME280;67231;59.144;37.934;2023-05-10T11:21:48;100942.50;;;20.68;25.79
77869;BME280;67231;59.144;37.934;2023-05-10T11:24:18;100937.78;;;20.77;27.05
77869;BME280;67231;59.144;37.934;2023-05-10T11:26:44;100930.63;;;20.90;26.63
77869;BME280;67231;59.144;37.934;2023-05-10T11:29:13;100928.84;;;21.04;26.08
77869;BME280;67231;59.144;37.934;2023-05-10T11:31:46;100941.50;;;21.04;25.96
77869;BME280;67231;59.144;37.934;2023-05-10T11:34:29;100923.44;;;20.69;26.26
77869;BME280;67231;59.144;37.934;2023-05-10T11:37:01;100932.66;;;20.60;26.22
77869;BME280;67231;59.144;37.934;2023-05-10T11:39:30;100918.09;;;20.76;26.80
77869;BME280;67231;59.144;37.934;2023-05-10T11:41:58;100926.91;;;20.91;26.44
77869;BME280;67231;59.144;37.934;2023-05-10T11:44:34;100930.69;;;21.04;26.39
77869;BME280;67231;59.144;37.934;2023-05-10T11:47:01;100917.44;;;21.09;26.63
77869;BME280;67231;59.144;37.934;2023-05-10T11:49:28;100927.72;;;20.92;25.97
77869;BME280;67231;59.144;37.934;2023-05-10T11:52:04;100919.47;;;21.00;25.77
77869;BME280;67231;59.144;37.934;2023-05-10T11:54:31;100916.25;;;20.83;25.90
77869;BME280;67231;59.144;37.934;2023-05-10T11:56:57;100919.53;;;20.50;25.46
77869;BME280;67231;59.144;37.934;2023-05-10T11:59:24;100913.97;;;20.30;26.06
77869;BME280;67231;59.144;37.934;2023-05-10T12:01:51;100908.19;;;20.33;27.00
77869;BME280;67231;59.144;37.934;2023-05-10T12:04:17;100905.84;;;20.52;26.72
77869;BME280;67231;59.144;37.934;2023-05-10T12:06:44;100907.50;;;20.74;26.61
77869;BME280;67231;59.144;37.934;2023-05-10T12:09:10;100902.81;;;20.90;25.79
77869;BME280;67231;59.144;37.934;2023-05-10T12:11:39;100900.94;;;20.62;25.72
77869;BME280;67231;59.144;37.934;2023-05-10T12:14:06;100901.72;;;20.56;26.46
77869;BME280;67231;59.144;37.934;2023-05-10T12:16:34;100905.50;;;20.33;26.68
77869;BME280;67231;59.144;37.934;2023-05-10T12:19:00;100896.53;;;20.26;26.96
77869;BME280;67231;59.144;37.934;2023-05-10T12:21:28;100893.53;;;20.43;26.84
77869;BME280;67231;59.144;37.934;2023-05-10T12:24:00;100895.47;;;20.27;26.64
77869;BME280;67231;59.144;37.934;2023-05-10T12:26:27;100893.06;;;20.11;26.67
77869;BME280;67231;59.144;37.934;2023-05-10T12:28:54;100896.22;;;19.93;26.87
77869;BME280;67231;59.144;37.934;2023-05-10T12:31:21;100896.09;;;19.64;26.84
77869;BME280;67231;59.144;37.934;2023-05-10T12:33:47;100896.59;;;19.53;27.47
77869;BME280;67231;59.144;37.934;2023-05-10T12:36:16;100891.38;;;19.67;26.84
77869;BME280;67231;59.144;37.934;2023-05-10T12:38:46;100890.78;;;19.86;26.69
77869;BME280;67231;59.144;37.934;2023-05-10T12:41:17;100882.13;;;19.91;26.33
77869;BME280;67231;59.144;37.934;2023-05-10T12:43:43;100889.22;;;19.77;26.81
77869;BME280;67231;59.144;37.934;2023-05-10T12:46:12;100891.91;;;19.77;27.24
77869;BME280;67231;59.144;37.934;2023-05-10T12:48:41;100881.59;;;19.80;26.38
77869;BME280;67231;59.144;37.934;2023-05-10T12:51:08;100888.72;;;19.88;26.54
77869;BME280;67231;59.144;37.934;2023-05-10T12:53:39;100880.63;;;19.88;26.36
77869;BME280;67231;59.144;37.934;2023-05-10T12:56:06;100889.25;;;19.98;26.64
77869;BME280;67231;59.144;37.934;2023-05-10T12:58:32;100882.22;;;20.04;27.64
77869;BME280;67231;59.144;37.934;2023-05-10T13:00:59;100881.03;;;20.07;27.50
77869;BME280;67231;59.144;37.934;2023-05-10T13:03:25;100883.56;;;20.15;27.01
77869;BME280;67231;59.144;37.934;2023-05-10T13:05:52;100879.34;;;20.06;27.08
77869;BME280;67231;59.144;37.934;2023-05-10T13:08:18;100874.88;;;20.13;26.58
77869;BME280;67231;59.144;37.934;2023-05-10T13:10:44;100878.28;;;20.28;26.45
77869;BME280;67231;59.144;37.934;2023-05-10T13:13:10;100868.81;;;20.32;26.00